createdAt,value
2018-07-28T00:01:40.445Z,6.57
2018-07-28T00:04:09.464Z,6.20
2018-07-28T00:06:38.373Z,6.90
2018-07-28T00:09:09.926Z,6.40
2018-07-28T00:11:39.042Z,6.87
2018-07-28T00:14:08.754Z,7.80
2018-07-28T00:16:37.753Z,6.63
2018-07-28T00:19:06.794Z,7.43
2018-07-28T00:21:35.782Z,7.67
2018-07-28T00:24:05.178Z,6.83
2018-07-28T00:26:34.164Z,6.87
2018-07-28T00:29:03.249Z,6.37
2018-07-28T00:31:32.220Z,6.27
2018-07-28T00:34:01.185Z,6.43
2018-07-28T00:36:30.152Z,6.30
2018-07-28T00:38:59.107Z,7.50
2018-07-28T00:41:28.074Z,6.73
2018-07-28T00:43:57.136Z,6.87
2018-07-28T00:46:26.117Z,7.40
2018-07-28T00:48:55.089Z,7.00
2018-07-28T00:51:24.129Z,7.83
2018-07-28T00:53:53.112Z,8.13
2018-07-28T00:56:22.096Z,5.93
2018-07-28T00:58:51.036Z,6.90
2018-07-28T01:01:20.025Z,6.70
2018-07-28T01:03:48.954Z,8.27
2018-07-28T01:06:17.976Z,7.07
2018-07-28T01:08:46.880Z,6.83
2018-07-28T01:11:15.906Z,8.53
2018-07-28T01:13:44.880Z,6.47
2018-07-28T01:16:13.935Z,6.43
2018-07-28T01:18:42.905Z,6.43
2018-07-28T01:21:11.922Z,6.40
2018-07-28T01:23:40.913Z,6.37
2018-07-28T01:26:09.945Z,6.80
2018-07-28T01:28:39.768Z,6.53
2018-07-28T01:31:08.857Z,7.17
2018-07-28T01:33:37.919Z,7.87
2018-07-28T01:36:06.861Z,7.50
2018-07-28T01:38:35.917Z,9.00
2018-07-28T01:41:04.431Z,8.13
2018-07-28T01:43:33.405Z,7.87
2018-07-28T01:46:02.325Z,7.57
2018-07-28T01:48:31.358Z,7.07
2018-07-28T01:51:00.277Z,7.97
2018-07-28T01:53:29.245Z,7.73
2018-07-28T01:55:58.233Z,6.93
2018-07-28T01:58:27.152Z,7.83
2018-07-28T02:00:56.160Z,8.07
2018-07-28T02:03:25.112Z,9.77
2018-07-28T02:05:54.453Z,7.70
2018-07-28T02:08:23.417Z,7.93
2018-07-28T02:10:52.363Z,7.40
2018-07-28T02:13:21.377Z,7.33
2018-07-28T02:15:50.328Z,9.57
2018-07-28T02:18:19.330Z,8.40
2018-07-28T02:20:48.348Z,7.33
2018-07-28T02:23:17.384Z,7.50
2018-07-28T02:25:45.908Z,7.67
2018-07-28T02:28:14.952Z,9.77
2018-07-28T02:30:43.929Z,8.43
2018-07-28T02:33:12.968Z,8.87
2018-07-28T02:35:41.930Z,8.00
2018-07-28T02:38:10.890Z,7.47
2018-07-28T02:40:39.849Z,9.20
2018-07-28T02:43:08.796Z,7.00
2018-07-28T02:45:37.769Z,7.53
2018-07-28T02:48:07.394Z,9.43
2018-07-28T02:50:36.460Z,7.93
2018-07-28T02:53:05.654Z,7.80
2018-07-28T02:55:34.608Z,10.23
2018-07-28T02:58:03.630Z,9.53
2018-07-28T03:00:34.559Z,8.10
2018-07-28T03:03:03.573Z,8.20
2018-07-28T03:05:32.557Z,9.63
2018-07-28T03:08:01.494Z,9.80
2018-07-28T03:10:30.442Z,7.43
2018-07-28T03:12:59.390Z,8.13
2018-07-28T03:15:30.370Z,7.90
2018-07-28T03:18:00.726Z,7.83
2018-07-28T03:20:29.829Z,10.13
2018-07-28T03:22:59.120Z,8.83
2018-07-28T03:25:28.089Z,11.17
2018-07-28T03:27:57.495Z,7.60
2018-07-28T03:30:26.911Z,7.73
2018-07-28T03:32:56.005Z,8.87
2018-07-28T03:35:25.285Z,8.00
2018-07-28T03:37:54.261Z,8.10
2018-07-28T03:40:23.196Z,8.20
2018-07-28T03:42:52.183Z,8.60
2018-07-28T03:45:21.235Z,9.33
2018-07-28T03:47:50.192Z,9.13
2018-07-28T03:50:19.165Z,11.07
2018-07-28T03:52:48.217Z,9.20
2018-07-28T03:55:17.277Z,9.77
2018-07-28T03:57:46.221Z,9.27
2018-07-28T04:00:15.233Z,11.07
2018-07-28T04:02:44.338Z,10.47
2018-07-28T04:05:13.276Z,8.20
2018-07-28T04:07:42.273Z,9.33
2018-07-28T04:10:11.173Z,8.23
2018-07-28T04:12:40.465Z,7.63
2018-07-28T04:15:12.016Z,8.53
2018-07-28T04:17:46.276Z,9.50
2018-07-28T04:20:15.424Z,7.97
2018-07-28T04:22:43.971Z,8.23
2018-07-28T04:25:13.465Z,10.90
2018-07-28T04:27:42.457Z,8.23
2018-07-28T04:30:11.393Z,7.80
2018-07-28T04:32:40.468Z,11.00
2018-07-28T04:35:09.421Z,8.07
2018-07-28T04:37:39.301Z,7.43
2018-07-28T04:40:09.400Z,8.00
2018-07-28T04:42:38.480Z,7.90
2018-07-28T04:45:07.484Z,7.97
2018-07-28T04:47:37.433Z,8.83
2018-07-28T04:50:06.478Z,8.43
2018-07-28T04:52:36.089Z,7.83
2018-07-28T04:55:04.956Z,8.47
2018-07-28T04:57:33.924Z,9.60
2018-07-28T05:00:02.884Z,12.03
2018-07-28T05:02:31.389Z,7.80
2018-07-28T05:05:00.313Z,8.17
2018-07-28T05:07:29.373Z,9.63
2018-07-28T05:09:58.268Z,8.43
2018-07-28T05:12:27.382Z,8.73
2018-07-28T05:14:56.241Z,7.57
2018-07-28T05:17:25.188Z,7.93
2018-07-28T05:19:54.019Z,8.23
2018-07-28T05:22:22.651Z,7.80
2018-07-28T05:24:51.584Z,9.40
2018-07-28T05:27:20.551Z,7.43
2018-07-28T05:29:49.497Z,8.10
2018-07-28T05:32:18.456Z,7.77
2018-07-28T05:34:47.425Z,7.20
2018-07-28T05:37:16.321Z,7.63
2018-07-28T05:39:45.284Z,7.67
2018-07-28T05:42:14.232Z,6.83
2018-07-28T05:44:42.721Z,8.13
2018-07-28T05:47:11.587Z,7.67
2018-07-28T05:49:40.592Z,9.23
2018-07-28T05:52:09.544Z,7.70
2018-07-28T05:54:38.503Z,7.43
2018-07-28T05:57:07.785Z,7.63
2018-07-28T05:59:36.403Z,9.47
2018-07-28T06:02:05.329Z,7.70
2018-07-28T06:04:34.315Z,9.27
2018-07-28T06:07:03.278Z,9.07
2018-07-28T06:09:32.268Z,7.90
2018-07-28T06:12:01.184Z,8.27
2018-07-28T06:14:30.117Z,7.73
2018-07-28T06:16:58.896Z,6.97
2018-07-28T06:19:27.851Z,6.70
2018-07-28T06:21:56.802Z,7.57
2018-07-28T06:24:25.733Z,7.10
2018-07-28T06:26:54.716Z,7.00
2018-07-28T06:29:23.648Z,6.77
2018-07-28T06:31:52.755Z,8.07
2018-07-28T06:34:22.653Z,6.83
2018-07-28T06:36:51.641Z,7.20
2018-07-28T06:39:20.732Z,6.97
2018-07-28T06:41:49.673Z,8.13
2018-07-28T06:44:18.642Z,8.13
2018-07-28T06:46:47.099Z,8.27
2018-07-28T06:49:16.016Z,6.97
2018-07-28T06:51:44.932Z,6.70
2018-07-28T06:54:14.105Z,8.30
2018-07-28T06:56:42.663Z,6.70
2018-07-28T06:59:11.581Z,7.47
2018-07-28T07:01:40.227Z,6.87
2018-07-28T07:04:09.150Z,6.97
2018-07-28T07:06:38.078Z,7.07
2018-07-28T07:09:10.218Z,7.83
2018-07-28T07:11:39.233Z,7.10
2018-07-28T07:14:08.209Z,7.30
2018-07-28T07:16:37.220Z,7.00
2018-07-28T07:19:06.346Z,6.47
2018-07-28T07:21:35.606Z,6.70
2018-07-28T07:24:04.660Z,7.07
2018-07-28T07:26:33.554Z,6.40
2018-07-28T07:29:02.066Z,7.13
2018-07-28T07:31:31.049Z,7.07
2018-07-28T07:33:59.552Z,6.67
2018-07-28T07:36:28.503Z,6.20
2018-07-28T07:38:57.485Z,6.37
2018-07-28T07:41:26.500Z,6.87
2018-07-28T07:43:55.416Z,6.40
2018-07-28T07:46:24.377Z,6.80
2018-07-28T07:48:53.357Z,7.87
2018-07-28T07:51:22.539Z,6.80
2018-07-28T07:53:51.436Z,6.80
2018-07-28T07:56:20.713Z,7.53
2018-07-28T07:58:49.648Z,8.00
2018-07-28T08:01:18.715Z,7.63
2018-07-28T08:03:47.613Z,8.03
2018-07-28T08:06:16.666Z,7.57
2018-07-28T08:08:45.120Z,6.67
2018-07-28T08:11:14.160Z,7.70
2018-07-28T08:13:43.101Z,7.07
2018-07-28T08:16:12.017Z,8.10
2018-07-28T08:18:40.953Z,8.37
2018-07-28T08:21:09.889Z,9.67
2018-07-28T08:23:39.344Z,7.90
2018-07-28T08:26:08.443Z,8.50
2018-07-28T08:28:37.494Z,7.80
2018-07-28T08:31:06.472Z,9.10
2018-07-28T08:33:35.064Z,8.05
2018-07-28T08:36:03.545Z,7.45
2018-07-28T08:38:32.097Z,8.58
2018-07-28T08:41:01.052Z,7.33
2018-07-28T08:43:30.005Z,9.35
2018-07-28T08:45:59.609Z,8.10
2018-07-28T08:48:28.532Z,7.90
2018-07-28T08:50:57.557Z,8.70
2018-07-28T08:53:26.548Z,9.48
2018-07-28T08:55:56.037Z,8.50
2018-07-28T08:58:24.998Z,9.28
2018-07-28T09:00:53.972Z,8.05
2018-07-28T09:03:22.952Z,8.98
2018-07-28T09:05:51.836Z,7.85
2018-07-28T09:08:20.844Z,7.45
2018-07-28T09:10:49.838Z,7.92
2018-07-28T09:13:18.796Z,7.33
2018-07-28T09:15:47.733Z,7.45
2018-07-28T09:18:16.233Z,11.33
2018-07-28T09:20:45.161Z,6.85
2018-07-28T09:23:14.162Z,6.72
2018-07-28T09:25:43.152Z,5.90
2018-07-28T09:28:12.077Z,5.87
2018-07-28T09:30:41.124Z,6.33
2018-07-28T09:33:10.006Z,5.53
2018-07-28T09:35:38.960Z,5.75
2018-07-28T09:38:07.472Z,6.58
2018-07-28T09:40:36.436Z,6.12
2018-07-28T09:43:05.549Z,5.75
2018-07-28T09:45:34.100Z,6.08
2018-07-28T09:48:02.973Z,6.55
2018-07-28T09:50:31.908Z,5.90
2018-07-28T09:53:00.853Z,6.03
2018-07-28T09:55:30.130Z,6.58
2018-07-28T09:57:59.053Z,6.45
2018-07-28T10:00:33.333Z,6.05
2018-07-28T10:03:02.304Z,7.90
2018-07-28T10:05:31.259Z,6.30
2018-07-28T10:08:00.440Z,6.97
2018-07-28T10:10:29.461Z,6.67
2018-07-28T10:12:58.575Z,7.00
2018-07-28T10:15:27.511Z,7.40
2018-07-28T10:17:57.736Z,7.40
2018-07-28T10:20:26.700Z,6.60
2018-07-28T10:22:55.718Z,9.60
2018-07-28T10:25:24.721Z,6.70
2018-07-28T10:27:53.720Z,7.62
2018-07-28T10:30:22.676Z,7.37
2018-07-28T10:32:51.680Z,6.92
2018-07-28T10:35:20.604Z,7.60
2018-07-28T10:37:49.716Z,7.20
2018-07-28T10:40:18.716Z,7.92
2018-07-28T10:42:47.176Z,7.10
2018-07-28T10:45:16.336Z,7.15
2018-07-28T10:47:45.333Z,9.98
2018-07-28T10:50:14.335Z,7.05
2018-07-28T10:52:43.383Z,6.83
2018-07-28T10:55:12.324Z,6.53
2018-07-28T10:57:41.332Z,8.78
2018-07-28T11:00:10.332Z,6.47
2018-07-28T11:02:39.273Z,7.03
2018-07-28T11:05:08.241Z,7.92
2018-07-28T11:07:37.230Z,7.33
2018-07-28T11:10:06.397Z,6.62
2018-07-28T11:12:35.333Z,6.03
2018-07-28T11:15:05.099Z,8.38
2018-07-28T11:17:34.132Z,6.90
2018-07-28T11:20:03.141Z,6.90
2018-07-28T11:22:32.141Z,6.67
2018-07-28T11:25:01.164Z,7.67
2018-07-28T11:27:30.141Z,6.08
2018-07-28T11:29:59.142Z,6.33
2018-07-28T11:33:39.566Z,6.62
2018-07-28T11:36:19.577Z,6.33
2018-07-28T11:38:59.558Z,7.30
2018-07-28T11:41:39.769Z,6.53
2018-07-28T11:44:19.858Z,9.20
2018-07-28T11:46:48.911Z,6.47
2018-07-28T11:49:17.861Z,6.08
2018-07-28T11:51:46.398Z,6.22
2018-07-28T11:54:15.368Z,5.60
2018-07-28T11:56:44.353Z,6.00
2018-07-28T11:59:13.338Z,5.70
2018-07-28T12:01:42.320Z,5.42
2018-07-28T12:04:10.816Z,6.28
2018-07-28T12:06:39.786Z,6.00
2018-07-28T12:09:08.913Z,6.00
2018-07-28T12:11:37.925Z,6.05
2018-07-28T12:14:06.934Z,5.30
2018-07-28T12:16:35.948Z,5.55
2018-07-28T12:19:04.938Z,4.95
2018-07-28T12:21:33.888Z,5.08
2018-07-28T12:24:02.950Z,6.25
2018-07-28T12:26:31.830Z,5.80
2018-07-28T12:29:00.775Z,6.30
2018-07-28T12:31:29.836Z,10.03
2018-07-28T12:33:58.817Z,5.90
2018-07-28T12:36:27.376Z,6.05
2018-07-28T12:38:56.384Z,6.37
2018-07-28T12:41:24.843Z,6.17
2018-07-28T12:43:53.809Z,5.45
2018-07-28T12:46:22.872Z,5.92
2018-07-28T12:48:51.849Z,6.08
2018-07-28T12:51:20.320Z,6.75
2018-07-28T12:53:49.328Z,6.40
2018-07-28T12:56:18.193Z,6.00
2018-07-28T12:58:47.092Z,5.75
2018-07-28T13:01:16.072Z,6.00
2018-07-28T13:03:45.539Z,6.10
2018-07-28T13:06:14.492Z,6.25
2018-07-28T13:08:42.996Z,6.15
2018-07-28T13:11:11.975Z,5.95
2018-07-28T13:13:40.960Z,6.47
2018-07-28T13:16:09.639Z,6.87
2018-07-28T13:18:38.617Z,6.25
2018-07-28T13:21:08.473Z,5.80
2018-07-28T13:23:37.645Z,5.58
2018-07-28T13:26:07.048Z,5.50
2018-07-28T13:28:36.096Z,5.62
2018-07-28T13:31:05.065Z,6.85
2018-07-28T13:33:34.156Z,5.33
2018-07-28T13:36:03.085Z,5.50
2018-07-28T13:38:32.296Z,5.50
2018-07-28T13:41:01.248Z,5.92
2018-07-28T13:43:31.065Z,5.40
2018-07-28T13:46:00.056Z,5.65
2018-07-28T13:48:29.144Z,7.30
2018-07-28T13:50:58.079Z,5.47
2018-07-28T13:53:27.140Z,5.35
2018-07-28T13:55:56.051Z,5.22
2018-07-28T13:58:25.031Z,4.72
2018-07-28T14:00:54.009Z,5.75
2018-07-28T14:03:23.189Z,5.30
2018-07-28T14:05:52.164Z,5.25
2018-07-28T14:08:21.194Z,5.03
2018-07-28T14:10:50.188Z,5.72
2018-07-28T14:13:19.184Z,5.08
2018-07-28T14:15:48.106Z,5.33
2018-07-28T14:18:16.644Z,4.95
2018-07-28T14:20:46.191Z,5.47
2018-07-28T14:23:15.167Z,5.40
2018-07-28T14:25:44.233Z,5.00
2018-07-28T14:28:13.162Z,5.50
2018-07-28T14:30:42.160Z,4.70
2018-07-28T14:33:11.104Z,5.58
2018-07-28T14:35:41.431Z,5.40
2018-07-28T14:38:10.439Z,5.12
2018-07-28T14:40:39.370Z,5.08
2018-07-28T14:43:08.292Z,5.35
2018-07-28T14:45:37.252Z,5.22
2018-07-28T14:48:06.580Z,5.83
2018-07-28T14:50:35.549Z,5.67
2018-07-28T14:53:04.453Z,5.70
2018-07-28T14:55:33.443Z,5.70
2018-07-28T14:58:02.385Z,5.40
2018-07-28T15:00:32.223Z,5.83
2018-07-28T15:03:01.221Z,6.67
2018-07-28T15:05:30.173Z,5.83
2018-07-28T15:07:59.156Z,5.35
2018-07-28T15:10:28.097Z,5.80
2018-07-28T15:12:57.036Z,4.87
2018-07-28T15:15:26.009Z,5.62
2018-07-28T15:17:54.949Z,5.50
2018-07-28T15:20:23.916Z,5.97
2018-07-28T15:22:52.538Z,5.72
2018-07-28T15:25:21.560Z,5.83
2018-07-28T15:27:50.504Z,5.55
2018-07-28T15:30:19.513Z,5.62
2018-07-28T15:32:48.476Z,6.05
2018-07-28T15:35:17.372Z,5.55
2018-07-28T15:37:46.366Z,5.65
2018-07-28T15:40:15.264Z,5.80
2018-07-28T15:42:44.270Z,5.60
2018-07-28T15:45:13.169Z,6.17
2018-07-28T15:47:42.190Z,6.00
2018-07-28T15:50:11.139Z,5.40
2018-07-28T15:52:40.126Z,5.70
2018-07-28T15:55:09.112Z,5.53
2018-07-28T15:57:38.138Z,5.85
2018-07-28T16:00:07.235Z,5.60
2018-07-28T16:02:37.048Z,5.20
2018-07-28T16:05:06.113Z,5.60
2018-07-28T16:07:35.106Z,5.72
2018-07-28T16:10:05.184Z,5.65
2018-07-28T16:12:34.081Z,5.75
2018-07-28T16:15:03.044Z,5.40
2018-07-28T16:17:31.576Z,5.70
2018-07-28T16:20:00.869Z,6.47
2018-07-28T16:22:29.787Z,5.65
2018-07-28T16:24:58.811Z,5.33
2018-07-28T16:27:27.856Z,5.75
2018-07-28T16:29:56.785Z,4.85
2018-07-28T16:32:25.741Z,5.22
2018-07-28T16:34:54.360Z,5.50
2018-07-28T16:37:23.353Z,5.83
2018-07-28T16:39:52.564Z,5.20
2018-07-28T16:42:21.553Z,6.17
2018-07-28T16:44:50.555Z,5.78
2018-07-28T16:47:19.461Z,5.37
2018-07-28T16:49:48.441Z,5.60
2018-07-28T16:52:17.437Z,6.33
2018-07-28T16:54:46.389Z,5.62
2018-07-28T16:57:15.309Z,5.20
2018-07-28T16:59:44.277Z,5.28
2018-07-28T17:02:13.183Z,5.40
2018-07-28T17:04:42.148Z,5.97
2018-07-28T17:07:11.117Z,5.33
2018-07-28T17:09:40.122Z,5.37
2018-07-28T17:12:09.137Z,5.20
2018-07-28T17:14:38.109Z,5.20
2018-07-28T17:17:07.232Z,6.15
2018-07-28T17:19:36.188Z,6.03
2018-07-28T17:22:04.683Z,5.03
2018-07-28T17:24:33.661Z,5.22
2018-07-28T17:27:02.208Z,5.53
2018-07-28T17:29:31.329Z,5.22
2018-07-28T17:32:00.209Z,5.25
2018-07-28T17:34:30.724Z,5.65
2018-07-28T17:36:59.673Z,5.92
2018-07-28T17:39:28.601Z,5.97
2018-07-28T17:41:57.918Z,6.08
2018-07-28T17:44:26.891Z,5.30
2018-07-28T17:46:56.116Z,9.88
2018-07-28T17:49:25.084Z,6.45
2018-07-28T17:51:54.025Z,6.05
2018-07-28T17:54:22.535Z,5.87
2018-07-28T17:56:51.457Z,7.00
2018-07-28T17:59:20.464Z,6.33
2018-07-28T18:01:49.396Z,6.03
2018-07-28T18:04:18.428Z,7.10
2018-07-28T18:06:47.384Z,6.42
2018-07-28T18:09:16.442Z,6.42
2018-07-28T18:11:45.001Z,6.15
2018-07-28T18:14:14.973Z,7.10
2018-07-28T18:16:43.930Z,7.83
2018-07-28T18:19:14.469Z,6.10
2018-07-28T18:21:43.454Z,5.65
2018-07-28T18:24:12.464Z,6.00
2018-07-28T18:26:40.984Z,7.00
2018-07-28T18:29:09.991Z,5.90
2018-07-28T18:31:39.053Z,7.25
2018-07-28T18:34:08.001Z,6.90
2018-07-28T18:36:37.097Z,7.00
2018-07-28T18:39:12.219Z,6.92
2018-07-28T18:41:41.280Z,7.35
2018-07-28T18:44:10.590Z,6.70
2018-07-28T18:46:39.573Z,9.98
2018-07-28T18:49:08.619Z,8.90
2018-07-28T18:51:37.604Z,7.65
2018-07-28T18:54:06.865Z,6.70
2018-07-28T18:56:35.848Z,10.15
2018-07-28T18:59:04.914Z,8.35
2018-07-28T19:01:33.943Z,7.92
2018-07-28T19:04:02.949Z,7.75
2018-07-28T19:06:31.959Z,6.78
2018-07-28T19:09:06.114Z,6.58
2018-07-28T19:11:35.180Z,6.97
2018-07-28T19:14:09.536Z,8.38
2018-07-28T19:16:38.044Z,7.08
2018-07-28T19:19:16.834Z,8.13
2018-07-28T19:21:46.466Z,7.97
2018-07-28T19:24:15.745Z,7.70
2018-07-28T19:26:44.256Z,7.92
2018-07-28T19:29:18.531Z,7.47
2018-07-28T19:31:47.453Z,7.97
2018-07-28T19:34:16.508Z,7.62
2018-07-28T19:36:50.832Z,8.05
2018-07-28T19:39:19.860Z,7.80
2018-07-28T19:41:53.925Z,7.75
2018-07-28T19:44:22.955Z,7.87
2018-07-28T19:46:52.780Z,7.90
2018-07-28T19:49:21.768Z,8.10
2018-07-28T19:51:51.713Z,8.50
2018-07-28T19:54:21.723Z,8.48
2018-07-28T19:56:50.816Z,8.55
2018-07-28T19:59:19.926Z,8.70
2018-07-28T20:01:49.790Z,9.20
2018-07-28T20:04:18.862Z,8.25
2018-07-28T20:06:47.907Z,7.95
2018-07-28T20:09:16.985Z,8.10
2018-07-28T20:11:45.993Z,8.30
2018-07-28T20:14:15.449Z,8.88
2018-07-28T20:16:44.556Z,8.95
2018-07-28T20:19:13.135Z,11.85
2018-07-28T20:21:42.181Z,8.85
2018-07-28T20:24:11.197Z,9.43
2018-07-28T20:26:40.241Z,9.35
2018-07-28T20:29:09.298Z,10.80
2018-07-28T20:31:38.305Z,10.25
2018-07-28T20:34:07.449Z,11.88
2018-07-28T20:36:36.785Z,8.93
2018-07-28T20:39:08.205Z,9.33
2018-07-28T20:41:37.265Z,10.10
2018-07-28T20:44:05.836Z,9.48
2018-07-28T20:46:34.976Z,9.58
2018-07-28T20:49:07.607Z,9.00
2018-07-28T20:51:37.658Z,10.25
2018-07-28T20:54:07.188Z,9.93
2018-07-28T20:56:36.217Z,9.67
2018-07-28T20:59:05.300Z,8.87
2018-07-28T21:01:34.288Z,10.27
2018-07-28T21:04:08.673Z,9.87
2018-07-28T21:06:37.831Z,9.80
2018-07-28T21:09:06.970Z,10.40
2018-07-28T21:11:36.046Z,9.10
2018-07-28T21:14:05.358Z,10.83
2018-07-28T21:16:34.373Z,9.40
2018-07-28T21:19:03.325Z,9.57
2018-07-28T21:21:32.641Z,9.50
2018-07-28T21:24:01.702Z,10.20
2018-07-28T21:26:30.741Z,10.10
2018-07-28T21:28:59.777Z,10.30
2018-07-28T21:31:28.850Z,10.27
2018-07-28T21:33:57.901Z,10.03
2018-07-28T21:36:27.978Z,9.37
2018-07-28T21:38:56.971Z,10.37
2018-07-28T21:41:26.173Z,9.97
2018-07-28T21:43:55.148Z,9.53
2018-07-28T21:46:24.209Z,9.50
2018-07-28T21:48:53.297Z,10.47
2018-07-28T21:51:22.273Z,9.67
2018-07-28T21:53:51.320Z,9.70
2018-07-28T21:56:23.938Z,9.73
2018-07-28T21:58:54.409Z,10.07
2018-07-28T22:01:23.399Z,10.20
2018-07-28T22:03:52.470Z,10.23
2018-07-28T22:06:21.508Z,9.63
2018-07-28T22:08:50.505Z,9.50
2018-07-28T22:11:19.474Z,9.50
2018-07-28T22:13:48.517Z,10.00
2018-07-28T22:16:17.888Z,10.87
2018-07-28T22:18:46.910Z,9.60
2018-07-28T22:21:15.849Z,10.27
2018-07-28T22:23:44.917Z,9.97
2018-07-28T22:26:13.423Z,9.33
2018-07-28T22:28:42.405Z,9.63
2018-07-28T22:31:11.384Z,9.80
2018-07-28T22:33:39.919Z,9.53
2018-07-28T22:36:08.965Z,9.87
2018-07-28T22:38:37.935Z,9.57
2018-07-28T22:41:07.065Z,10.00
2018-07-28T22:43:36.140Z,10.83
2018-07-28T22:46:05.147Z,9.60
2018-07-28T22:48:34.117Z,9.53
2018-07-28T22:51:03.082Z,9.80
2018-07-28T22:53:32.096Z,10.00
2018-07-28T22:56:01.136Z,10.47
2018-07-28T22:58:30.081Z,10.17
2018-07-28T23:00:59.077Z,10.70
2018-07-28T23:03:28.069Z,10.97
2018-07-28T23:05:57.142Z,11.33
2018-07-28T23:08:26.174Z,10.47
2018-07-28T23:10:54.704Z,11.03
2018-07-28T23:13:23.685Z,9.83
2018-07-28T23:15:52.712Z,10.10
2018-07-28T23:18:21.717Z,9.73
2018-07-28T23:20:50.713Z,10.20
2018-07-28T23:23:19.732Z,9.40
2018-07-28T23:25:48.749Z,9.30
2018-07-28T23:28:17.770Z,10.37
2018-07-28T23:30:46.893Z,10.00
2018-07-28T23:33:15.828Z,9.80
2018-07-28T23:35:44.863Z,10.33
2018-07-28T23:38:13.933Z,9.47
2018-07-28T23:40:43.015Z,9.90
2018-07-28T23:43:12.312Z,10.70
2018-07-28T23:45:41.316Z,9.67
2018-07-28T23:48:10.297Z,10.47
2018-07-28T23:50:39.342Z,10.60
2018-07-28T23:53:08.373Z,10.27
2018-07-28T23:55:37.388Z,10.27
2018-07-28T23:58:06.477Z,9.57
